createdAt,value
2022-09-30T00:01:33.330Z,42.91
2022-09-30T00:04:01.799Z,43.18
2022-09-30T00:06:32.000Z,42.93
2022-09-30T00:09:00.243Z,43.20
2022-09-30T00:11:30.094Z,42.83
2022-09-30T00:13:58.884Z,43.11
2022-09-30T00:16:29.635Z,42.91
2022-09-30T00:19:00.456Z,42.93
2022-09-30T00:21:31.867Z,42.98
2022-09-30T00:23:59.649Z,43.32
2022-09-30T00:26:27.928Z,43.09
2022-09-30T00:28:57.825Z,43.08
2022-09-30T00:31:27.658Z,43.32
2022-09-30T00:34:10.660Z,43.03
2022-09-30T00:36:44.139Z,43.47
2022-09-30T00:39:15.140Z,43.29
2022-09-30T00:41:43.999Z,43.20
2022-09-30T00:44:52.836Z,43.84
2022-09-30T00:47:49.480Z,43.98
2022-09-30T00:50:31.460Z,43.86
2022-09-30T00:53:06.544Z,43.80
2022-09-30T00:55:46.074Z,43.78
2022-09-30T00:58:19.138Z,43.87
2022-09-30T01:00:47.250Z,43.84
2022-09-30T01:03:15.129Z,43.70
2022-09-30T01:05:45.426Z,43.63
2022-09-30T01:08:14.849Z,44.00
2022-09-30T01:10:42.584Z,43.78
2022-09-30T01:13:10.554Z,43.38
2022-09-30T01:15:53.039Z,43.99
2022-09-30T01:18:30.152Z,44.37
2022-09-30T01:21:24.477Z,44.33
2022-09-30T01:24:14.448Z,44.25
2022-09-30T01:27:03.108Z,44.14
2022-09-30T01:29:57.775Z,44.28
2022-09-30T01:32:46.832Z,44.39
2022-09-30T01:35:26.344Z,44.09
2022-09-30T01:38:04.738Z,43.99
2022-09-30T01:40:40.669Z,44.09
2022-09-30T01:43:13.968Z,43.75
2022-09-30T01:45:47.562Z,43.67
2022-09-30T01:48:24.112Z,43.85
2022-09-30T01:50:58.685Z,44.07
2022-09-30T01:53:36.467Z,43.81
2022-09-30T01:56:12.840Z,43.86
2022-09-30T01:58:47.551Z,43.84
2022-09-30T02:01:22.659Z,43.77
2022-09-30T02:03:56.918Z,44.13
2022-09-30T02:06:27.947Z,43.65
2022-09-30T02:09:00.616Z,44.01
2022-09-30T02:11:31.055Z,43.93
2022-09-30T02:14:02.828Z,43.78
2022-09-30T02:16:40.072Z,44.07
2022-09-30T02:19:20.447Z,43.94
2022-09-30T02:21:55.179Z,44.12
2022-09-30T02:24:25.629Z,43.78
2022-09-30T02:26:57.296Z,43.85
2022-09-30T02:29:32.329Z,43.85
2022-09-30T02:32:05.309Z,44.39
2022-09-30T02:34:36.020Z,44.98
2022-09-30T02:37:08.883Z,44.07
2022-09-30T02:39:43.208Z,44.50
2022-09-30T02:42:16.390Z,44.10
2022-09-30T02:44:44.201Z,44.16
2022-09-30T02:47:17.230Z,44.03
2022-09-30T02:49:49.184Z,45.11
2022-09-30T02:52:26.818Z,44.63
2022-09-30T02:55:08.690Z,44.52
2022-09-30T02:57:44.046Z,44.69
2022-09-30T03:00:13.506Z,44.16
2022-09-30T03:02:41.604Z,44.35
2022-09-30T03:05:11.585Z,44.57
2022-09-30T03:07:41.348Z,44.16
2022-09-30T03:10:14.521Z,44.85
2022-09-30T03:12:57.669Z,44.74
2022-09-30T03:15:36.711Z,44.73
2022-09-30T03:18:25.386Z,44.88
2022-09-30T03:21:09.449Z,44.82
2022-09-30T03:23:52.627Z,44.88
2022-09-30T03:26:27.426Z,45.45
2022-09-30T03:29:09.887Z,45.16
2022-09-30T03:31:53.294Z,44.85
2022-09-30T03:34:27.555Z,44.67
2022-09-30T03:37:04.479Z,45.07
2022-09-30T03:39:48.523Z,44.99
2022-09-30T03:42:22.880Z,44.73
2022-09-30T03:45:02.511Z,44.85
2022-09-30T03:47:33.112Z,44.61
2022-09-30T03:50:04.868Z,44.88
2022-09-30T03:52:35.537Z,44.55
2022-09-30T03:55:08.014Z,44.41
2022-09-30T03:57:35.909Z,44.76
2022-09-30T04:00:05.472Z,44.59
2022-09-30T04:02:38.129Z,44.48
2022-09-30T04:05:07.312Z,44.38
2022-09-30T04:07:37.029Z,44.85
2022-09-30T04:10:05.599Z,44.47
2022-09-30T04:12:33.384Z,44.53
2022-09-30T04:15:01.187Z,44.52
2022-09-30T04:17:28.937Z,44.65
2022-09-30T04:19:56.870Z,44.77
2022-09-30T04:22:26.547Z,44.69
2022-09-30T04:24:55.869Z,44.86
2022-09-30T04:27:23.588Z,44.72
2022-09-30T04:29:51.390Z,44.94
2022-09-30T04:32:19.240Z,44.82
2022-09-30T04:34:47.042Z,44.99
2022-09-30T04:37:15.208Z,45.27
2022-09-30T04:39:44.237Z,45.06
2022-09-30T04:42:13.363Z,45.39
2022-09-30T04:44:41.151Z,45.32
2022-09-30T04:47:09.212Z,44.98
2022-09-30T04:49:37.081Z,45.29
2022-09-30T04:52:04.835Z,45.22
2022-09-30T04:54:32.606Z,45.28
2022-09-30T04:57:00.332Z,45.04
2022-09-30T04:59:29.493Z,45.36
2022-09-30T05:01:57.287Z,45.27
2022-09-30T05:04:25.115Z,45.47
2022-09-30T05:06:52.822Z,45.25
2022-09-30T05:09:20.782Z,45.15
2022-09-30T05:11:48.554Z,45.18
2022-09-30T05:14:16.345Z,45.35
2022-09-30T05:16:45.502Z,45.37
2022-09-30T05:19:13.409Z,45.53
2022-09-30T05:21:44.819Z,45.41
2022-09-30T05:24:12.761Z,45.23
2022-09-30T05:26:40.677Z,45.28
2022-09-30T05:29:08.681Z,45.30
2022-09-30T05:31:36.918Z,45.27
2022-09-30T05:34:06.197Z,45.39
2022-09-30T05:36:33.914Z,45.54
2022-09-30T05:39:01.773Z,45.42
2022-09-30T05:41:29.526Z,45.44
2022-09-30T05:44:01.026Z,45.49
2022-09-30T05:46:29.237Z,45.56
2022-09-30T05:48:57.209Z,45.38
2022-09-30T05:51:26.444Z,45.61
2022-09-30T05:53:54.523Z,45.74
2022-09-30T05:56:22.473Z,45.81
2022-09-30T05:58:50.870Z,45.92
2022-09-30T06:01:19.010Z,45.89
2022-09-30T06:03:47.982Z,45.85
2022-09-30T06:06:16.783Z,45.70
2022-09-30T06:08:46.933Z,45.78
2022-09-30T06:11:17.759Z,45.78
2022-09-30T06:13:47.574Z,45.66
2022-09-30T06:16:15.808Z,45.87
2022-09-30T06:18:43.636Z,45.84
2022-09-30T06:21:13.488Z,46.07
2022-09-30T06:23:41.590Z,46.01
2022-09-30T06:26:13.418Z,46.50
2022-09-30T06:28:42.318Z,46.45
2022-09-30T06:31:11.349Z,46.94
2022-09-30T06:33:39.387Z,47.59
2022-09-30T06:36:07.336Z,47.99
2022-09-30T06:38:37.643Z,48.25
2022-09-30T06:41:06.264Z,48.96
2022-09-30T06:43:49.439Z,48.92
2022-09-30T06:46:29.807Z,49.42
2022-09-30T06:49:13.386Z,49.36
2022-09-30T06:51:42.101Z,49.80
2022-09-30T06:54:10.239Z,49.58
2022-09-30T06:56:38.181Z,49.35
2022-09-30T06:59:07.310Z,48.43
2022-09-30T07:01:36.344Z,48.66
2022-09-30T07:04:09.408Z,48.40
2022-09-30T07:06:38.922Z,48.44
2022-09-30T07:09:07.457Z,47.33
2022-09-30T07:11:36.635Z,47.07
2022-09-30T07:14:05.245Z,46.73
2022-09-30T07:16:35.280Z,46.43
2022-09-30T07:19:03.802Z,45.94
2022-09-30T07:21:31.814Z,45.18
2022-09-30T07:24:00.177Z,44.79
2022-09-30T07:26:29.352Z,44.20
2022-09-30T07:28:57.230Z,43.62
2022-09-30T07:31:35.671Z,43.32
2022-09-30T07:34:07.991Z,42.41
2022-09-30T07:36:37.036Z,42.26
2022-09-30T07:39:07.599Z,42.38
2022-09-30T07:41:38.857Z,41.65
2022-09-30T07:44:11.086Z,41.22
2022-09-30T07:46:40.385Z,41.16
2022-09-30T07:49:14.750Z,40.17
2022-09-30T07:51:45.434Z,40.82
2022-09-30T07:54:16.121Z,40.40
2022-09-30T07:57:09.171Z,40.10
2022-09-30T07:59:34.412Z,39.30
2022-09-30T08:02:02.406Z,39.54
2022-09-30T08:04:31.625Z,38.59
2022-09-30T08:07:01.330Z,38.75
2022-09-30T08:09:31.193Z,38.23
2022-09-30T08:11:59.349Z,38.09
2022-09-30T08:14:28.863Z,38.09
2022-09-30T08:16:58.399Z,38.50
2022-09-30T08:19:27.557Z,38.39
2022-09-30T08:21:57.634Z,38.39
2022-09-30T08:24:26.532Z,38.64
2022-09-30T08:26:54.979Z,38.70
2022-09-30T08:29:53.406Z,38.74
2022-09-30T08:32:11.052Z,38.90
2022-09-30T08:34:38.922Z,38.96
2022-09-30T08:37:10.198Z,38.67
2022-09-30T08:39:38.332Z,38.78
2022-09-30T08:42:38.989Z,37.98
2022-09-30T08:45:20.730Z,37.75
2022-09-30T08:47:56.159Z,38.42
2022-09-30T08:50:30.369Z,38.48
2022-09-30T08:53:02.625Z,38.26
2022-09-30T08:55:37.091Z,38.67
2022-09-30T08:58:06.040Z,39.34
2022-09-30T09:00:35.144Z,39.23
2022-09-30T09:03:04.226Z,39.51
2022-09-30T09:05:51.513Z,38.49
2022-09-30T09:08:30.453Z,38.99
2022-09-30T09:11:05.265Z,39.17
2022-09-30T09:13:47.513Z,39.13
2022-09-30T09:16:23.152Z,39.19
2022-09-30T09:19:04.713Z,38.57
2022-09-30T09:21:51.642Z,38.05
2022-09-30T09:24:23.849Z,38.91
2022-09-30T09:26:54.029Z,39.56
2022-09-30T09:29:34.196Z,39.06
2022-09-30T09:32:03.635Z,39.22
2022-09-30T09:34:34.823Z,39.59
2022-09-30T09:37:18.394Z,39.09
2022-09-30T09:40:13.108Z,39.02
2022-09-30T09:42:56.227Z,38.33
2022-09-30T09:45:30.011Z,38.75
2022-09-30T09:48:00.041Z,39.24
2022-09-30T09:50:37.401Z,38.50
2022-09-30T09:53:39.243Z,38.57
2022-09-30T09:56:18.574Z,38.27
2022-09-30T09:59:09.350Z,38.03
2022-09-30T10:01:39.013Z,38.50
2022-09-30T10:04:19.221Z,37.81
2022-09-30T10:06:51.476Z,38.41
2022-09-30T10:09:32.722Z,38.21
2022-09-30T10:12:35.434Z,38.17
2022-09-30T10:15:22.673Z,37.64
2022-09-30T10:17:55.926Z,38.18
2022-09-30T10:20:30.924Z,38.37
2022-09-30T10:23:05.840Z,37.94
2022-09-30T10:25:33.963Z,37.98
2022-09-30T10:28:17.033Z,37.08
2022-09-30T10:30:50.439Z,37.31
2022-09-30T10:33:25.661Z,36.91
2022-09-30T10:36:19.069Z,36.90
2022-09-30T10:39:07.269Z,37.19
2022-09-30T10:41:38.108Z,37.92
2022-09-30T10:44:16.578Z,37.18
2022-09-30T10:46:47.399Z,37.29
2022-09-30T10:49:27.373Z,36.70
2022-09-30T10:51:55.752Z,37.26
2022-09-30T10:54:46.322Z,37.23
2022-09-30T10:57:17.256Z,36.66
2022-09-30T10:59:47.851Z,37.26
2022-09-30T11:02:30.670Z,36.56
2022-09-30T11:05:04.411Z,37.58
2022-09-30T11:07:38.565Z,37.64
2022-09-30T11:10:15.196Z,37.11
2022-09-30T11:12:48.820Z,36.79
2022-09-30T11:15:23.116Z,36.50
2022-09-30T11:17:58.593Z,36.15
2022-09-30T11:20:30.908Z,36.34
2022-09-30T11:23:05.130Z,36.04
2022-09-30T11:25:40.861Z,36.06
2022-09-30T11:28:37.084Z,36.11
2022-09-30T11:31:17.096Z,35.56
2022-09-30T11:33:59.960Z,35.29
2022-09-30T11:36:32.614Z,37.13
2022-09-30T11:39:19.517Z,35.58
2022-09-30T11:41:55.931Z,35.67
2022-09-30T11:44:31.236Z,35.07
2022-09-30T11:47:30.396Z,35.15
2022-09-30T11:50:19.101Z,35.58
2022-09-30T11:52:57.442Z,35.12
2022-09-30T11:55:44.830Z,35.22
2022-09-30T11:58:39.794Z,35.13
2022-09-30T12:01:15.364Z,34.83
2022-09-30T12:03:49.214Z,34.67
2022-09-30T12:06:26.436Z,34.26
2022-09-30T12:08:59.937Z,34.16
2022-09-30T12:11:36.283Z,34.02
2022-09-30T12:14:10.842Z,33.83
2022-09-30T12:16:39.771Z,34.67
2022-09-30T12:19:18.727Z,32.97
2022-09-30T12:21:56.321Z,33.51
2022-09-30T12:24:30.772Z,33.35
2022-09-30T12:26:59.970Z,33.97
2022-09-30T12:29:50.279Z,33.71
2022-09-30T12:32:51.065Z,33.58
2022-09-30T12:35:38.945Z,33.05
2022-09-30T12:38:21.447Z,33.47
2022-09-30T12:41:02.128Z,33.08
2022-09-30T12:43:59.265Z,33.14
2022-09-30T12:46:47.523Z,32.54
2022-09-30T12:49:21.548Z,33.15
2022-09-30T12:51:55.623Z,33.19
2022-09-30T12:54:27.652Z,33.30
2022-09-30T12:56:59.312Z,33.10
2022-09-30T12:59:30.840Z,33.40
2022-09-30T13:02:00.986Z,33.44
2022-09-30T13:04:35.652Z,32.48
2022-09-30T13:07:19.673Z,32.33
2022-09-30T13:10:02.971Z,32.64
2022-09-30T13:12:43.161Z,32.39
2022-09-30T13:15:39.475Z,32.07
2022-09-30T13:18:59.061Z,32.93
2022-09-30T13:21:27.163Z,32.87
2022-09-30T13:23:58.009Z,32.47
2022-09-30T13:26:40.078Z,31.71
2022-09-30T13:29:38.112Z,32.43
2022-09-30T13:32:11.983Z,31.90
2022-09-30T13:34:59.488Z,32.35
2022-09-30T13:37:41.562Z,32.17
2022-09-30T13:40:37.836Z,31.80
2022-09-30T13:43:18.788Z,32.10
2022-09-30T13:45:49.443Z,32.35
2022-09-30T13:48:22.622Z,32.57
2022-09-30T13:50:52.709Z,32.55
2022-09-30T13:53:32.214Z,31.96
2022-09-30T13:56:08.375Z,31.79
2022-09-30T13:58:53.326Z,31.55
2022-09-30T14:01:42.205Z,31.52
2022-09-30T14:04:35.519Z,31.58
2022-09-30T14:07:14.093Z,31.31
2022-09-30T14:10:09.741Z,31.50
2022-09-30T14:13:03.543Z,31.72
2022-09-30T14:16:03.806Z,31.30
2022-09-30T14:19:05.127Z,31.83
2022-09-30T14:21:41.283Z,31.53
2022-09-30T14:24:17.226Z,31.49
2022-09-30T14:27:05.070Z,31.75
2022-09-30T14:29:44.855Z,31.47
2022-09-30T14:32:14.838Z,32.10
2022-09-30T14:34:43.357Z,31.94
2022-09-30T14:37:19.890Z,31.67
2022-09-30T14:39:49.509Z,31.73
2022-09-30T14:42:25.168Z,31.33
2022-09-30T14:44:56.655Z,31.87
2022-09-30T14:47:25.824Z,32.16
2022-09-30T14:49:53.783Z,31.90
2022-09-30T14:52:37.334Z,31.35
2022-09-30T14:55:05.997Z,32.08
2022-09-30T14:57:35.884Z,32.17
2022-09-30T15:00:30.121Z,31.48
2022-09-30T15:02:59.135Z,31.80
2022-09-30T15:05:27.653Z,31.94
2022-09-30T15:07:55.698Z,32.16
2022-09-30T15:10:25.934Z,32.18
2022-09-30T15:12:56.246Z,31.74
2022-09-30T15:15:29.019Z,32.00
2022-09-30T15:17:56.938Z,32.01
2022-09-30T15:20:30.818Z,31.58
2022-09-30T15:23:03.527Z,31.86
2022-09-30T15:25:32.036Z,32.44
2022-09-30T15:28:00.029Z,31.88
2022-09-30T15:30:30.109Z,32.18
2022-09-30T15:33:00.466Z,32.32
2022-09-30T15:35:29.313Z,31.84
2022-09-30T15:38:08.457Z,31.85
2022-09-30T15:40:49.979Z,31.73
2022-09-30T15:43:32.961Z,31.46
2022-09-30T15:46:27.892Z,31.46
2022-09-30T15:48:58.284Z,31.78
2022-09-30T15:51:32.262Z,31.55
2022-09-30T15:54:01.547Z,31.93
2022-09-30T15:56:36.125Z,31.53
2022-09-30T15:59:07.728Z,31.67
2022-09-30T16:01:38.964Z,32.21
2022-09-30T16:04:15.384Z,31.87
2022-09-30T16:06:49.253Z,31.62
2022-09-30T16:09:24.746Z,31.98
2022-09-30T16:12:05.206Z,31.80
2022-09-30T16:14:37.328Z,32.09
2022-09-30T16:17:07.875Z,32.05
2022-09-30T16:19:35.825Z,32.01
2022-09-30T16:22:03.637Z,31.88
2022-09-30T16:24:48.537Z,31.73
2022-09-30T16:27:31.217Z,31.00
2022-09-30T16:30:00.241Z,31.75
2022-09-30T16:32:33.878Z,31.74
2022-09-30T16:35:01.852Z,31.58
2022-09-30T16:37:29.672Z,31.80
2022-09-30T16:40:07.341Z,31.62
2022-09-30T16:42:35.158Z,32.33
2022-09-30T16:45:02.998Z,32.33
2022-09-30T16:47:32.409Z,32.09
2022-09-30T16:50:00.175Z,31.78
2022-09-30T16:52:27.956Z,31.95
2022-09-30T16:54:55.902Z,31.99
2022-09-30T16:57:23.700Z,32.55
2022-09-30T16:59:51.470Z,32.17
2022-09-30T17:02:20.165Z,32.50
2022-09-30T17:04:49.443Z,32.07
2022-09-30T17:07:17.260Z,32.28
2022-09-30T17:09:45.218Z,32.59
2022-09-30T17:12:13.521Z,32.74
2022-09-30T17:14:43.326Z,32.53
2022-09-30T17:17:13.652Z,32.21
2022-09-30T17:19:42.137Z,32.19
2022-09-30T17:22:11.368Z,32.25
2022-09-30T17:24:39.311Z,32.86
2022-09-30T17:27:07.798Z,32.95
2022-09-30T17:29:41.807Z,33.13
2022-09-30T17:32:10.140Z,32.64
2022-09-30T17:34:37.906Z,32.88
2022-09-30T17:39:35.517Z,33.03
2022-09-30T17:42:20.725Z,33.33
2022-09-30T17:44:48.557Z,32.99
2022-09-30T17:47:16.325Z,33.25
2022-09-30T17:49:44.380Z,32.95
2022-09-30T17:52:14.512Z,33.38
2022-09-30T17:54:43.746Z,33.28
2022-09-30T17:57:11.706Z,33.60
2022-09-30T17:59:40.326Z,33.63
2022-09-30T18:02:08.283Z,33.52
2022-09-30T18:04:37.667Z,33.96
2022-09-30T18:07:06.197Z,34.03
2022-09-30T18:09:37.165Z,33.64
2022-09-30T18:12:07.297Z,34.00
2022-09-30T18:14:36.474Z,34.34
2022-09-30T18:17:05.610Z,33.95
2022-09-30T18:19:34.635Z,34.03
2022-09-30T18:22:02.488Z,34.36
2022-09-30T18:24:47.927Z,34.30
2022-09-30T18:27:17.262Z,34.24
2022-09-30T18:29:45.041Z,34.76
2022-09-30T18:32:13.344Z,34.47
2022-09-30T18:34:41.175Z,34.76
2022-09-30T18:37:09.053Z,34.88
2022-09-30T18:39:38.122Z,34.70
2022-09-30T18:42:06.672Z,34.85
2022-09-30T18:44:37.655Z,34.88
2022-09-30T18:47:05.769Z,34.75
2022-09-30T18:49:33.742Z,35.15
2022-09-30T18:52:03.182Z,35.20
2022-09-30T18:54:31.061Z,34.84
2022-09-30T18:56:59.666Z,34.81
2022-09-30T18:59:27.611Z,34.73
2022-09-30T19:01:58.501Z,34.96
2022-09-30T19:04:26.596Z,35.43
2022-09-30T19:06:54.370Z,35.40
2022-09-30T19:09:24.418Z,34.98
2022-09-30T19:11:52.837Z,35.36
2022-09-30T19:14:20.843Z,34.84
2022-09-30T19:16:49.308Z,34.69
2022-09-30T19:19:20.461Z,34.68
2022-09-30T19:21:49.453Z,34.80
2022-09-30T19:24:18.059Z,34.83
2022-09-30T19:26:47.934Z,35.00
2022-09-30T19:29:16.237Z,34.54
2022-09-30T19:31:45.345Z,34.92
2022-09-30T19:34:25.192Z,34.88
2022-09-30T19:36:59.810Z,34.51
2022-09-30T19:39:41.214Z,34.69
2022-09-30T19:45:10.518Z,35.15
2022-09-30T19:47:38.377Z,35.17
2022-09-30T19:50:07.449Z,35.11
2022-09-30T19:52:42.787Z,35.22
2022-09-30T19:55:16.820Z,34.67
2022-09-30T19:57:45.231Z,35.20
2022-09-30T20:00:13.706Z,35.25
2022-09-30T20:02:42.015Z,34.84
2022-09-30T20:05:10.687Z,35.35
2022-09-30T20:07:40.049Z,34.86
2022-09-30T20:10:08.737Z,35.32
2022-09-30T20:12:36.525Z,35.40
2022-09-30T20:15:21.898Z,34.98
2022-09-30T20:17:49.688Z,35.60
2022-09-30T20:20:36.437Z,35.47
2022-09-30T20:23:07.744Z,35.07
2022-09-30T20:25:36.267Z,35.02
2022-09-30T20:28:05.400Z,35.53
2022-09-30T20:30:34.403Z,35.09
2022-09-30T20:33:02.485Z,35.09
2022-09-30T20:35:30.320Z,35.01
2022-09-30T20:37:58.093Z,35.59
2022-09-30T20:40:27.565Z,35.59
2022-09-30T20:43:01.426Z,35.14
2022-09-30T20:45:29.635Z,35.71
2022-09-30T20:47:57.536Z,35.26
2022-09-30T20:50:35.861Z,35.76
2022-09-30T20:53:09.407Z,35.19
2022-09-30T20:55:43.322Z,35.78
2022-09-30T20:58:12.742Z,35.50
2022-09-30T21:00:43.667Z,35.48
2022-09-30T21:03:13.575Z,35.77
2022-09-30T21:05:41.778Z,35.66
2022-09-30T21:08:09.576Z,35.92
2022-09-30T21:10:39.191Z,35.96
2022-09-30T21:13:11.514Z,35.65
2022-09-30T21:15:40.023Z,35.94
2022-09-30T21:18:08.195Z,35.76
2022-09-30T21:20:36.355Z,36.12
2022-09-30T21:23:04.481Z,35.84
2022-09-30T21:25:32.767Z,36.13
2022-09-30T21:28:03.388Z,36.34
2022-09-30T21:30:31.349Z,35.91
2022-09-30T21:32:59.120Z,36.24
2022-09-30T21:35:27.019Z,36.35
2022-09-30T21:37:54.748Z,36.33
2022-09-30T21:40:22.514Z,36.28
2022-09-30T21:42:50.338Z,36.47
2022-09-30T21:45:20.200Z,36.61
2022-09-30T21:47:48.019Z,36.19
2022-09-30T21:50:16.053Z,36.51
2022-09-30T21:52:43.947Z,36.63
2022-09-30T21:55:12.458Z,36.66
2022-09-30T21:57:40.333Z,36.69
2022-09-30T22:00:09.055Z,36.66
2022-09-30T22:02:43.918Z,36.41
2022-09-30T22:05:12.221Z,36.40
2022-09-30T22:07:40.096Z,36.46
2022-09-30T22:10:08.959Z,36.47
2022-09-30T22:12:36.748Z,36.84
2022-09-30T22:15:05.085Z,36.60
2022-09-30T22:17:32.893Z,36.60
2022-09-30T22:20:02.949Z,37.05
2022-09-30T22:22:30.706Z,36.72
2022-09-30T22:24:58.519Z,36.59
2022-09-30T22:27:26.284Z,36.87
2022-09-30T22:29:54.061Z,36.71
2022-09-30T22:32:21.845Z,36.82
2022-09-30T22:35:07.199Z,36.83
2022-09-30T22:37:53.648Z,37.15
2022-09-30T22:40:21.421Z,37.31
2022-09-30T22:42:49.196Z,36.90
2022-09-30T22:45:17.136Z,37.18
2022-09-30T22:47:44.934Z,37.29
2022-09-30T22:50:12.747Z,37.31
2022-09-30T22:52:41.848Z,37.35
2022-09-30T22:55:10.433Z,37.58
2022-09-30T22:57:38.185Z,37.50
2022-09-30T23:00:07.059Z,37.51
2022-09-30T23:02:35.031Z,37.59
2022-09-30T23:05:02.983Z,37.25
2022-09-30T23:07:31.043Z,37.62
2022-09-30T23:10:01.063Z,37.61
2022-09-30T23:12:29.105Z,37.18
2022-09-30T23:14:57.455Z,37.72
2022-09-30T23:17:25.356Z,37.60
2022-09-30T23:19:53.154Z,37.27
2022-09-30T23:22:20.998Z,37.78
2022-09-30T23:24:48.881Z,37.29
2022-09-30T23:27:18.135Z,37.28
2022-09-30T23:29:45.890Z,37.35
2022-09-30T23:32:13.718Z,37.25
2022-09-30T23:34:41.529Z,37.94
2022-09-30T23:37:09.345Z,37.94
2022-09-30T23:39:37.111Z,37.57
2022-09-30T23:42:04.889Z,37.62
2022-09-30T23:44:34.086Z,38.06
2022-09-30T23:47:19.792Z,37.64
2022-09-30T23:49:47.693Z,37.92
2022-09-30T23:52:15.954Z,37.88
2022-09-30T23:54:44.365Z,37.63
2022-09-30T23:57:12.738Z,37.84
2022-09-30T23:59:42.048Z,37.77
